createdAt,value
2023-05-05T00:00:28.558Z,4.80
2023-05-05T00:01:30.468Z,5.30
2023-05-05T00:02:32.226Z,5.38
2023-05-05T00:03:35.442Z,4.95
2023-05-05T00:04:37.276Z,4.82
2023-05-05T00:05:38.891Z,4.70
2023-05-05T00:06:40.523Z,5.00
2023-05-05T00:07:42.263Z,5.32
2023-05-05T00:08:43.963Z,4.90
2023-05-05T00:09:45.734Z,4.85
2023-05-05T00:10:48.005Z,5.07
2023-05-05T00:11:49.607Z,5.47
2023-05-05T00:12:51.290Z,5.30
2023-05-05T00:13:52.952Z,4.97
2023-05-05T00:14:54.574Z,4.72
2023-05-05T00:15:56.194Z,4.60
2023-05-05T00:16:57.879Z,5.27
2023-05-05T00:17:59.567Z,4.60
2023-05-05T00:19:01.295Z,4.40
2023-05-05T00:20:03.274Z,4.57
2023-05-05T00:21:04.855Z,3.95
2023-05-05T00:22:07.419Z,4.68
2023-05-05T00:23:09.015Z,4.00
2023-05-05T00:24:10.837Z,4.60
2023-05-05T00:25:12.539Z,4.20
2023-05-05T00:26:14.489Z,4.25
2023-05-05T00:27:16.143Z,4.07
2023-05-05T00:28:17.721Z,4.63
2023-05-05T00:29:19.296Z,3.88
2023-05-05T00:30:20.930Z,3.83
2023-05-05T00:31:22.856Z,3.92
2023-05-05T00:32:24.441Z,3.97
2023-05-05T00:33:26.047Z,4.28
2023-05-05T00:34:27.629Z,4.20
2023-05-05T00:35:29.315Z,3.85
2023-05-05T00:36:31.207Z,3.75
2023-05-05T00:37:32.937Z,4.07
2023-05-05T00:38:34.522Z,3.95
2023-05-05T00:39:36.098Z,3.92
2023-05-05T00:40:38.314Z,3.47
2023-05-05T00:41:40.854Z,4.00
2023-05-05T00:42:43.868Z,3.60
2023-05-05T00:43:45.423Z,3.60
2023-05-05T00:44:47.073Z,3.70
2023-05-05T00:45:48.739Z,3.97
2023-05-05T00:46:50.365Z,3.67
2023-05-05T00:47:55.209Z,4.07
2023-05-05T00:48:56.911Z,4.07
2023-05-05T00:49:58.543Z,3.22
2023-05-05T00:51:00.130Z,3.80
2023-05-05T00:52:01.965Z,4.03
2023-05-05T00:53:04.797Z,3.55
2023-05-05T00:54:06.396Z,3.50
2023-05-05T00:55:08.391Z,3.45
2023-05-05T00:56:10.010Z,3.45
2023-05-05T00:57:11.625Z,3.33
2023-05-05T00:58:13.661Z,3.57
2023-05-05T00:59:15.342Z,3.38
2023-05-05T01:00:18.039Z,3.67
2023-05-05T01:01:19.726Z,3.20
2023-05-05T01:02:22.809Z,3.33
2023-05-05T01:03:24.485Z,3.33
2023-05-05T01:04:27.025Z,3.33
2023-05-05T01:05:29.387Z,2.85
2023-05-05T01:06:59.850Z,3.53
2023-05-05T01:08:35.351Z,3.22
2023-05-05T01:10:19.592Z,2.93
2023-05-05T01:11:27.210Z,2.83
2023-05-05T01:13:01.521Z,3.15
2023-05-05T01:14:13.629Z,3.20
2023-05-05T01:15:17.871Z,3.25
2023-05-05T01:16:27.668Z,2.83
2023-05-05T01:17:38.754Z,3.00
2023-05-05T01:19:01.219Z,3.03
2023-05-05T01:20:12.463Z,2.97
2023-05-05T01:21:37.821Z,2.72
2023-05-05T01:22:46.802Z,2.90
2023-05-05T01:24:18.663Z,2.88
2023-05-05T01:25:31.241Z,2.88
2023-05-05T01:26:38.662Z,3.00
2023-05-05T01:27:49.586Z,3.00
2023-05-05T01:29:20.529Z,3.70
2023-05-05T01:30:43.729Z,3.00
2023-05-05T01:31:57.841Z,2.72
2023-05-05T01:33:04.084Z,2.58
2023-05-05T01:34:07.683Z,3.10
2023-05-05T01:35:09.574Z,2.63
2023-05-05T01:36:13.566Z,2.58
2023-05-05T01:37:27.076Z,2.42
2023-05-05T01:38:33.944Z,2.90
2023-05-05T01:39:35.708Z,2.78
2023-05-05T01:41:11.555Z,2.85
2023-05-05T01:42:15.992Z,3.10
2023-05-05T01:43:19.050Z,2.88
2023-05-05T01:44:20.620Z,3.50
2023-05-05T01:45:23.561Z,3.05
2023-05-05T01:46:25.712Z,2.83
2023-05-05T01:47:27.356Z,3.05
2023-05-05T01:48:30.053Z,3.15
2023-05-05T01:49:31.755Z,2.90
2023-05-05T01:50:33.554Z,2.70
2023-05-05T01:51:35.168Z,3.17
2023-05-05T01:52:37.702Z,2.63
2023-05-05T01:53:39.386Z,3.22
2023-05-05T01:54:41.365Z,3.03
2023-05-05T01:55:42.994Z,2.47
2023-05-05T01:56:44.569Z,2.57
2023-05-05T01:57:46.322Z,2.35
2023-05-05T01:58:47.979Z,3.10
2023-05-05T01:59:49.523Z,2.60
2023-05-05T02:00:51.491Z,3.03
2023-05-05T02:01:53.104Z,2.95
2023-05-05T02:02:55.229Z,2.65
2023-05-05T02:03:57.245Z,2.60
2023-05-05T02:04:58.849Z,3.00
2023-05-05T02:06:00.487Z,2.80
2023-05-05T02:07:02.464Z,3.03
2023-05-05T02:08:04.300Z,3.15
2023-05-05T02:09:06.162Z,3.25
2023-05-05T02:10:08.282Z,3.00
2023-05-05T02:11:10.206Z,2.65
2023-05-05T02:12:11.831Z,3.83
2023-05-05T02:13:13.651Z,2.80
2023-05-05T02:14:15.390Z,2.72
2023-05-05T02:15:16.985Z,3.20
2023-05-05T02:16:18.713Z,2.78
2023-05-05T02:17:20.481Z,2.90
2023-05-05T02:18:22.592Z,2.97
2023-05-05T02:19:31.942Z,2.70
2023-05-05T02:20:33.749Z,2.55
2023-05-05T02:21:35.337Z,2.90
2023-05-05T02:22:36.960Z,2.78
2023-05-05T02:23:38.661Z,2.80
2023-05-05T02:24:40.369Z,2.65
2023-05-05T02:25:43.591Z,3.08
2023-05-05T02:26:45.875Z,2.85
2023-05-05T02:27:47.471Z,2.90
2023-05-05T02:28:52.805Z,2.78
2023-05-05T02:29:57.880Z,2.47
2023-05-05T02:30:59.792Z,2.58
2023-05-05T02:32:14.625Z,3.25
2023-05-05T02:33:16.235Z,3.70
2023-05-05T02:34:24.097Z,2.58
2023-05-05T02:35:29.803Z,2.88
2023-05-05T02:36:32.574Z,2.67
2023-05-05T02:37:34.223Z,2.45
2023-05-05T02:38:35.837Z,2.67
2023-05-05T02:39:43.608Z,2.78
2023-05-05T02:40:46.267Z,2.70
2023-05-05T02:41:47.821Z,2.38
2023-05-05T02:42:49.417Z,2.75
2023-05-05T02:43:51.105Z,2.95
2023-05-05T02:44:53.767Z,3.05
2023-05-05T02:45:55.468Z,3.03
2023-05-05T02:46:57.693Z,3.17
2023-05-05T02:48:04.160Z,2.60
2023-05-05T02:49:05.920Z,2.80
2023-05-05T02:50:08.348Z,2.90
2023-05-05T02:51:10.205Z,2.92
2023-05-05T02:52:11.793Z,2.70
2023-05-05T02:53:13.368Z,2.88
2023-05-05T02:54:15.046Z,2.60
2023-05-05T02:55:16.731Z,3.15
2023-05-05T02:56:48.027Z,3.00
2023-05-05T02:58:12.674Z,3.72
2023-05-05T02:59:15.985Z,2.47
2023-05-05T03:00:24.611Z,2.83
2023-05-05T03:01:39.435Z,2.70
2023-05-05T03:02:44.929Z,3.17
2023-05-05T03:04:16.370Z,3.03
2023-05-05T03:05:21.384Z,2.78
2023-05-05T03:06:23.219Z,2.42
2023-05-05T03:07:42.971Z,2.63
2023-05-05T03:08:49.134Z,2.78
2023-05-05T03:10:11.136Z,2.50
2023-05-05T03:11:35.189Z,2.70
2023-05-05T03:12:47.183Z,2.73
2023-05-05T03:13:51.351Z,3.13
2023-05-05T03:14:53.018Z,2.58
2023-05-05T03:15:54.703Z,2.65
2023-05-05T03:16:56.715Z,2.72
2023-05-05T03:17:58.491Z,3.33
2023-05-05T03:19:00.185Z,2.85
2023-05-05T03:20:03.641Z,2.92
2023-05-05T03:21:08.852Z,2.90
2023-05-05T03:22:10.570Z,3.00
2023-05-05T03:23:13.431Z,2.50
2023-05-05T03:24:19.364Z,3.30
2023-05-05T03:25:21.002Z,2.63
2023-05-05T03:26:22.614Z,2.70
2023-05-05T03:27:24.212Z,3.28
2023-05-05T03:28:25.839Z,3.10
2023-05-05T03:29:29.594Z,3.47
2023-05-05T03:30:31.176Z,3.20
2023-05-05T03:31:32.952Z,2.58
2023-05-05T03:32:34.660Z,3.42
2023-05-05T03:33:36.241Z,2.67
2023-05-05T03:34:38.007Z,2.60
2023-05-05T03:35:39.625Z,2.72
2023-05-05T03:36:41.390Z,2.90
2023-05-05T03:37:43.180Z,2.88
2023-05-05T03:38:44.883Z,3.60
2023-05-05T03:39:46.490Z,3.72
2023-05-05T03:40:48.065Z,4.57
2023-05-05T03:41:49.694Z,3.45
2023-05-05T03:42:51.270Z,3.15
2023-05-05T03:43:52.894Z,3.40
2023-05-05T03:44:54.564Z,2.90
2023-05-05T03:45:56.252Z,3.33
2023-05-05T03:46:57.941Z,3.05
2023-05-05T03:47:59.585Z,4.03
2023-05-05T03:49:01.311Z,3.88
2023-05-05T03:50:02.907Z,3.40
2023-05-05T03:51:04.509Z,3.47
2023-05-05T03:52:06.396Z,3.30
2023-05-05T03:53:08.143Z,3.25
2023-05-05T03:54:09.889Z,3.10
2023-05-05T03:55:11.469Z,3.00
2023-05-05T03:56:13.096Z,3.15
2023-05-05T03:57:14.698Z,2.90
2023-05-05T03:58:16.792Z,3.10
2023-05-05T03:59:18.394Z,3.38
2023-05-05T04:00:19.992Z,2.83
2023-05-05T04:01:21.725Z,3.17
2023-05-05T04:02:23.356Z,2.72
2023-05-05T04:03:25.224Z,3.42
2023-05-05T04:04:27.130Z,2.87
2023-05-05T04:05:28.798Z,2.95
2023-05-05T04:06:31.926Z,3.00
2023-05-05T04:07:33.751Z,2.65
2023-05-05T04:08:35.391Z,3.17
2023-05-05T04:09:39.219Z,2.95
2023-05-05T04:10:40.808Z,3.40
2023-05-05T04:11:42.488Z,3.20
2023-05-05T04:12:44.137Z,3.03
2023-05-05T04:13:46.370Z,3.00
2023-05-05T04:14:47.996Z,3.97
2023-05-05T04:15:49.633Z,4.32
2023-05-05T04:16:51.231Z,3.80
2023-05-05T04:17:52.960Z,3.42
2023-05-05T04:18:55.480Z,3.30
2023-05-05T04:19:57.129Z,3.75
2023-05-05T04:20:58.759Z,2.95
2023-05-05T04:22:00.559Z,2.92
2023-05-05T04:23:02.202Z,3.15
2023-05-05T04:24:04.249Z,2.95
2023-05-05T04:25:06.757Z,3.20
2023-05-05T04:26:08.337Z,3.13
2023-05-05T04:27:09.994Z,2.70
2023-05-05T04:28:11.633Z,2.58
2023-05-05T04:29:13.216Z,3.63
2023-05-05T04:30:15.096Z,3.00
2023-05-05T04:31:16.817Z,2.95
2023-05-05T04:32:18.407Z,2.60
2023-05-05T04:33:20.056Z,2.42
2023-05-05T04:34:22.406Z,3.63
2023-05-05T04:35:24.069Z,3.23
2023-05-05T04:36:26.102Z,2.67
2023-05-05T04:37:27.700Z,3.13
2023-05-05T04:38:29.292Z,2.65
2023-05-05T04:39:31.434Z,2.60
2023-05-05T04:40:33.073Z,2.65
2023-05-05T04:41:34.831Z,2.70
2023-05-05T04:42:36.848Z,2.78
2023-05-05T04:43:38.460Z,3.08
2023-05-05T04:44:40.049Z,3.35
2023-05-05T04:45:41.743Z,3.17
2023-05-05T04:46:43.369Z,3.67
2023-05-05T04:47:45.006Z,3.08
2023-05-05T04:48:46.665Z,3.65
2023-05-05T04:49:48.280Z,3.15
2023-05-05T04:50:49.873Z,3.25
2023-05-05T04:51:51.545Z,3.20
2023-05-05T04:52:53.154Z,2.40
2023-05-05T04:53:54.964Z,2.63
2023-05-05T04:54:56.544Z,2.67
2023-05-05T04:56:00.138Z,2.73
2023-05-05T04:57:02.247Z,3.17
2023-05-05T04:58:03.905Z,2.92
2023-05-05T04:59:06.068Z,2.80
2023-05-05T05:00:08.755Z,3.08
2023-05-05T05:01:10.569Z,2.60
2023-05-05T05:02:12.335Z,3.08
2023-05-05T05:03:14.068Z,2.70
2023-05-05T05:04:18.607Z,3.00
2023-05-05T05:05:21.655Z,2.53
2023-05-05T05:06:23.590Z,2.50
2023-05-05T05:07:26.098Z,2.75
2023-05-05T05:08:27.694Z,2.72
2023-05-05T05:09:29.295Z,2.78
2023-05-05T05:10:30.922Z,3.40
2023-05-05T05:11:32.593Z,3.03
2023-05-05T05:12:34.317Z,3.13
2023-05-05T05:13:35.941Z,2.47
2023-05-05T05:14:38.271Z,3.20
2023-05-05T05:15:40.721Z,2.40
2023-05-05T05:16:42.468Z,2.40
2023-05-05T05:17:44.205Z,3.10
2023-05-05T05:18:46.019Z,2.95
2023-05-05T05:19:47.602Z,2.80
2023-05-05T05:20:49.181Z,3.00
2023-05-05T05:21:51.091Z,2.70
2023-05-05T05:22:52.680Z,2.90
2023-05-05T05:23:54.305Z,4.75
2023-05-05T05:24:55.905Z,2.75
2023-05-05T05:25:57.575Z,3.55
2023-05-05T05:26:59.159Z,3.10
2023-05-05T05:28:09.699Z,2.53
2023-05-05T05:29:12.520Z,2.72
2023-05-05T05:30:14.350Z,2.65
2023-05-05T05:31:15.936Z,2.67
2023-05-05T05:32:17.595Z,2.58
2023-05-05T05:33:19.881Z,2.58
2023-05-05T05:34:21.522Z,2.83
2023-05-05T05:35:23.113Z,2.45
2023-05-05T05:36:24.757Z,2.97
2023-05-05T05:37:31.065Z,2.63
2023-05-05T05:38:33.357Z,2.83
2023-05-05T05:39:35.006Z,2.67
2023-05-05T05:40:37.273Z,2.65
2023-05-05T05:41:39.035Z,2.90
2023-05-05T05:42:41.336Z,3.15
2023-05-05T05:43:42.976Z,2.47
2023-05-05T05:44:44.699Z,2.85
2023-05-05T05:45:46.398Z,3.00
2023-05-05T05:46:48.002Z,2.80
2023-05-05T05:47:49.715Z,2.90
2023-05-05T05:48:51.299Z,2.65
2023-05-05T05:49:53.530Z,2.85
2023-05-05T05:50:56.224Z,3.20
2023-05-05T05:51:57.848Z,2.67
2023-05-05T05:52:59.422Z,2.95
2023-05-05T05:54:01.059Z,3.13
2023-05-05T05:55:02.963Z,2.95
2023-05-05T05:56:04.859Z,3.05
2023-05-05T05:57:06.991Z,2.35
2023-05-05T05:58:08.734Z,3.23
2023-05-05T05:59:10.438Z,4.40
2023-05-05T06:00:13.379Z,3.28
2023-05-05T06:01:16.042Z,3.05
2023-05-05T06:02:17.880Z,3.00
2023-05-05T06:03:19.698Z,2.58
2023-05-05T06:04:21.517Z,2.40
2023-05-05T06:05:23.197Z,2.88
2023-05-05T06:06:25.005Z,2.33
2023-05-05T06:07:26.693Z,2.30
2023-05-05T06:08:28.366Z,2.53
2023-05-05T06:09:29.953Z,2.40
2023-05-05T06:10:32.010Z,2.22
2023-05-05T06:11:35.141Z,2.60
2023-05-05T06:12:36.744Z,2.30
2023-05-05T06:13:38.344Z,2.10
2023-05-05T06:14:40.006Z,2.50
2023-05-05T06:15:41.665Z,2.88
2023-05-05T06:16:44.274Z,2.40
2023-05-05T06:17:46.028Z,2.47
2023-05-05T06:18:47.716Z,2.60
2023-05-05T06:19:49.315Z,2.50
2023-05-05T06:20:51.138Z,2.33
2023-05-05T06:21:52.925Z,2.78
2023-05-05T06:22:54.486Z,2.53
2023-05-05T06:23:56.151Z,2.30
2023-05-05T06:24:57.764Z,3.17
2023-05-05T06:25:59.363Z,2.70
2023-05-05T06:27:02.361Z,2.78
2023-05-05T06:28:05.774Z,2.38
2023-05-05T06:29:07.502Z,3.15
2023-05-05T06:30:09.789Z,2.30
2023-05-05T06:31:13.066Z,2.72
2023-05-05T06:32:14.694Z,2.97
2023-05-05T06:33:16.721Z,2.40
2023-05-05T06:34:18.415Z,2.35
2023-05-05T06:35:20.665Z,2.78
2023-05-05T06:36:22.243Z,2.60
2023-05-05T06:37:23.832Z,2.45
2023-05-05T06:38:25.532Z,2.55
2023-05-05T06:39:27.178Z,2.60
2023-05-05T06:40:28.763Z,2.53
2023-05-05T06:41:30.458Z,2.60
2023-05-05T06:42:32.320Z,3.30
2023-05-05T06:43:33.897Z,3.63
2023-05-05T06:44:36.566Z,4.00
2023-05-05T06:45:38.172Z,2.78
2023-05-05T06:46:39.809Z,2.75
2023-05-05T06:47:42.440Z,2.55
2023-05-05T06:48:44.160Z,2.60
2023-05-05T06:49:45.795Z,2.53
2023-05-05T06:50:47.436Z,2.47
2023-05-05T06:51:49.046Z,2.58
2023-05-05T06:52:50.764Z,3.25
2023-05-05T06:53:52.765Z,3.00
2023-05-05T06:54:54.413Z,3.17
2023-05-05T06:55:56.068Z,3.25
2023-05-05T06:56:59.472Z,3.05
2023-05-05T06:58:01.331Z,2.58
2023-05-05T06:59:02.997Z,3.00
2023-05-05T07:00:06.079Z,3.58
2023-05-05T07:01:08.062Z,4.57
2023-05-05T07:02:09.802Z,3.35
2023-05-05T07:03:11.734Z,2.80
2023-05-05T07:04:13.537Z,3.00
2023-05-05T07:05:15.200Z,2.92
2023-05-05T07:06:17.094Z,2.67
2023-05-05T07:07:18.839Z,2.55
2023-05-05T07:08:20.459Z,6.40
2023-05-05T07:09:22.058Z,4.65
2023-05-05T07:10:24.274Z,3.25
2023-05-05T07:11:26.096Z,3.00
2023-05-05T07:12:29.294Z,2.78
2023-05-05T07:13:30.927Z,2.80
2023-05-05T07:14:32.518Z,2.97
2023-05-05T07:15:34.204Z,2.70
2023-05-05T07:16:37.311Z,2.83
2023-05-05T07:17:39.093Z,3.30
2023-05-05T07:18:40.853Z,3.17
2023-05-05T07:19:43.163Z,3.20
2023-05-05T07:20:44.776Z,2.85
2023-05-05T07:21:47.324Z,2.97
2023-05-05T07:22:48.998Z,3.25
2023-05-05T07:23:50.681Z,3.78
2023-05-05T07:24:53.472Z,2.90
2023-05-05T07:25:55.081Z,3.50
2023-05-05T07:26:57.477Z,3.40
2023-05-05T07:27:59.123Z,3.20
2023-05-05T07:29:02.440Z,3.25
2023-05-05T07:30:07.883Z,2.78
2023-05-05T07:31:11.822Z,3.42
2023-05-05T07:32:13.685Z,3.83
2023-05-05T07:33:15.938Z,3.03
2023-05-05T07:34:17.568Z,2.90
2023-05-05T07:35:19.276Z,4.18
2023-05-05T07:36:20.880Z,3.30
2023-05-05T07:37:22.497Z,4.15
2023-05-05T07:38:25.708Z,3.70
2023-05-05T07:39:27.345Z,3.85
2023-05-05T07:40:29.076Z,3.50
2023-05-05T07:41:30.860Z,3.33
2023-05-05T07:42:32.472Z,3.30
2023-05-05T07:43:34.121Z,3.70
2023-05-05T07:44:35.730Z,3.97
2023-05-05T07:45:37.315Z,3.40
2023-05-05T07:46:38.990Z,3.83
2023-05-05T07:47:40.871Z,3.83
2023-05-05T07:48:42.532Z,4.07
2023-05-05T07:49:44.396Z,4.03
2023-05-05T07:50:46.193Z,3.67
2023-05-05T07:51:50.193Z,3.90
2023-05-05T07:52:59.281Z,4.03
2023-05-05T07:54:12.304Z,4.03
2023-05-05T07:55:13.963Z,3.80
2023-05-05T07:56:15.746Z,4.13
2023-05-05T07:57:17.317Z,4.40
2023-05-05T07:58:18.890Z,3.95
2023-05-05T07:59:20.875Z,4.47
2023-05-05T08:00:22.721Z,4.07
2023-05-05T08:01:24.343Z,4.35
2023-05-05T08:02:26.085Z,4.15
2023-05-05T08:03:28.044Z,4.47
2023-05-05T08:04:29.884Z,4.57
2023-05-05T08:05:31.531Z,4.07
2023-05-05T08:06:33.626Z,4.30
2023-05-05T08:07:36.636Z,4.28
2023-05-05T08:08:38.236Z,3.80
2023-05-05T08:09:39.887Z,4.35
2023-05-05T08:10:41.596Z,4.00
2023-05-05T08:11:43.364Z,4.05
2023-05-05T08:12:45.048Z,4.18
2023-05-05T08:13:46.993Z,4.07
2023-05-05T08:14:48.561Z,4.55
2023-05-05T08:15:50.186Z,3.70
2023-05-05T08:16:51.786Z,4.30
2023-05-05T08:17:55.816Z,3.83
2023-05-05T08:18:57.435Z,3.80
2023-05-05T08:19:59.085Z,4.28
2023-05-05T08:21:00.676Z,3.70
2023-05-05T08:22:02.253Z,4.78
2023-05-05T08:23:03.963Z,4.05
2023-05-05T08:24:05.767Z,4.43
2023-05-05T08:25:08.035Z,4.30
2023-05-05T08:26:09.901Z,4.30
2023-05-05T08:27:11.527Z,4.47
2023-05-05T08:28:13.106Z,3.85
2023-05-05T08:29:14.705Z,4.07
2023-05-05T08:30:19.678Z,4.50
2023-05-05T08:31:22.001Z,4.32
2023-05-05T08:32:23.682Z,4.20
2023-05-05T08:33:25.567Z,4.25
2023-05-05T08:34:27.408Z,4.28
2023-05-05T08:35:29.132Z,4.70
2023-05-05T08:36:31.092Z,4.28
2023-05-05T08:37:32.865Z,4.13
2023-05-05T08:38:34.478Z,4.28
2023-05-05T08:39:36.110Z,4.60
2023-05-05T08:40:38.363Z,4.95
2023-05-05T08:41:40.144Z,4.57
2023-05-05T08:42:42.199Z,4.75
2023-05-05T08:43:44.507Z,4.55
2023-05-05T08:44:46.222Z,4.50
2023-05-05T08:45:47.809Z,4.60
2023-05-05T08:46:49.581Z,4.50
2023-05-05T08:47:51.342Z,5.07
2023-05-05T08:48:53.107Z,4.43
2023-05-05T08:49:54.667Z,4.63
2023-05-05T08:51:00.313Z,5.00
2023-05-05T08:52:04.726Z,4.78
2023-05-05T08:53:10.865Z,5.68
2023-05-05T08:54:18.337Z,5.32
2023-05-05T08:55:26.910Z,5.10
2023-05-05T08:56:33.595Z,4.70
2023-05-05T08:58:03.127Z,5.45
2023-05-05T08:59:04.782Z,4.90
2023-05-05T09:00:08.057Z,4.88
2023-05-05T09:01:10.551Z,5.53
2023-05-05T09:02:12.276Z,5.03
2023-05-05T09:03:14.066Z,5.35
2023-05-05T09:04:16.065Z,4.78
2023-05-05T09:05:17.846Z,6.97
2023-05-05T09:06:23.569Z,6.22
2023-05-05T09:07:25.466Z,5.23
2023-05-05T09:08:27.080Z,5.00
2023-05-05T09:09:28.665Z,5.20
2023-05-05T09:10:30.280Z,4.78
2023-05-05T09:11:32.472Z,4.78
2023-05-05T09:12:34.227Z,4.90
2023-05-05T09:15:13.478Z,5.53
2023-05-05T09:16:15.101Z,4.57
2023-05-05T09:17:26.389Z,5.03
2023-05-05T09:18:28.622Z,4.67
2023-05-05T09:19:30.449Z,5.35
2023-05-05T09:20:35.938Z,4.70
2023-05-05T09:21:38.173Z,5.18
2023-05-05T09:22:44.094Z,5.22
2023-05-05T09:24:09.314Z,6.10
2023-05-05T09:25:12.427Z,4.40
2023-05-05T09:26:14.531Z,4.45
2023-05-05T09:27:21.939Z,4.80
2023-05-05T09:28:23.546Z,5.07
2023-05-05T09:29:25.118Z,4.50
2023-05-05T09:30:27.227Z,4.95
2023-05-05T09:31:30.810Z,4.95
2023-05-05T09:32:45.861Z,5.97
2023-05-05T09:33:47.608Z,5.43
2023-05-05T09:34:59.188Z,4.93
2023-05-05T09:36:00.855Z,5.65
2023-05-05T09:37:02.449Z,4.72
2023-05-05T09:38:13.101Z,4.78
2023-05-05T09:39:18.692Z,4.90
2023-05-05T09:40:20.811Z,4.63
2023-05-05T09:41:36.871Z,5.00
2023-05-05T09:42:39.200Z,4.93
2023-05-05T09:43:51.878Z,4.88
2023-05-05T09:44:54.288Z,4.70
2023-05-05T09:46:08.395Z,4.88
2023-05-05T09:47:25.907Z,4.55
2023-05-05T09:48:31.816Z,5.05
2023-05-05T09:49:33.544Z,4.40
2023-05-05T09:50:44.802Z,4.60
2023-05-05T09:51:46.693Z,4.07
2023-05-05T09:53:01.483Z,4.45
2023-05-05T09:54:03.283Z,4.43
2023-05-05T09:55:05.260Z,4.70
2023-05-05T09:56:07.448Z,4.68
2023-05-05T09:57:09.083Z,4.57
2023-05-05T09:58:18.540Z,5.00
2023-05-05T09:59:20.728Z,4.25
2023-05-05T10:00:28.003Z,4.68
2023-05-05T10:01:29.653Z,4.85
2023-05-05T10:02:38.772Z,5.33
2023-05-05T10:03:50.128Z,4.60
2023-05-05T10:04:51.767Z,4.68
2023-05-05T10:05:54.728Z,4.68
2023-05-05T10:06:57.336Z,4.43
2023-05-05T10:07:59.327Z,4.53
2023-05-05T10:09:01.530Z,4.53
2023-05-05T10:10:07.877Z,3.95
2023-05-05T10:11:09.663Z,4.50
2023-05-05T10:12:11.638Z,4.47
2023-05-05T10:13:13.332Z,4.37
2023-05-05T10:14:15.955Z,4.10
2023-05-05T10:15:17.706Z,3.65
2023-05-05T10:16:19.375Z,3.80
2023-05-05T10:17:22.442Z,4.13
2023-05-05T10:18:25.314Z,4.00
2023-05-05T10:19:27.143Z,3.75
2023-05-05T10:20:28.749Z,3.65
2023-05-05T10:21:33.632Z,3.67
2023-05-05T10:22:35.441Z,4.15
2023-05-05T10:23:45.926Z,3.43
2023-05-05T10:24:52.036Z,4.03
2023-05-05T10:25:55.768Z,3.80
2023-05-05T10:26:58.698Z,3.58
2023-05-05T10:28:01.261Z,4.10
2023-05-05T10:29:02.905Z,3.20
2023-05-05T10:30:06.256Z,3.35
2023-05-05T10:31:24.549Z,4.32
2023-05-05T10:32:57.377Z,3.80
2023-05-05T10:34:10.465Z,5.57
2023-05-05T10:35:16.075Z,4.03
2023-05-05T10:36:17.729Z,4.03
2023-05-05T10:37:19.325Z,4.20
2023-05-05T10:38:21.081Z,5.03
2023-05-05T10:39:22.740Z,4.35
2023-05-05T10:40:24.396Z,3.75
2023-05-05T10:41:29.021Z,3.67
2023-05-05T10:42:32.192Z,4.15
2023-05-05T10:43:33.920Z,3.90
2023-05-05T10:44:36.786Z,4.20
2023-05-05T10:45:38.566Z,3.90
2023-05-05T10:46:41.087Z,4.43
2023-05-05T10:47:44.348Z,3.90
2023-05-05T10:48:48.329Z,3.95
2023-05-05T10:50:14.483Z,4.07
2023-05-05T10:51:38.763Z,4.22
2023-05-05T10:52:44.625Z,3.83
2023-05-05T10:53:53.793Z,3.42
2023-05-05T10:55:16.306Z,4.63
2023-05-05T10:56:30.267Z,6.38
2023-05-05T10:57:31.901Z,4.07
2023-05-05T10:58:43.742Z,4.25
2023-05-05T10:59:53.156Z,3.95
2023-05-05T11:00:54.956Z,4.22
2023-05-05T11:01:56.686Z,3.65
2023-05-05T11:03:16.627Z,3.40
2023-05-05T11:04:19.709Z,3.30
2023-05-05T11:05:22.384Z,3.67
2023-05-05T11:06:23.997Z,3.97
2023-05-05T11:07:27.511Z,3.72
2023-05-05T11:08:29.358Z,3.30
2023-05-05T11:09:31.509Z,4.00
2023-05-05T11:10:44.135Z,4.20
2023-05-05T11:12:01.976Z,4.03
2023-05-05T11:13:03.664Z,3.92
2023-05-05T11:14:22.388Z,3.67
2023-05-05T11:15:24.022Z,4.05
2023-05-05T11:16:46.038Z,3.70
2023-05-05T11:17:47.877Z,3.50
2023-05-05T11:18:49.736Z,3.78
2023-05-05T11:19:52.614Z,3.53
2023-05-05T11:21:00.014Z,3.53
2023-05-05T11:22:01.968Z,3.63
2023-05-05T11:23:03.603Z,3.10
2023-05-05T11:24:27.765Z,3.70
2023-05-05T11:25:39.129Z,3.60
2023-05-05T11:26:51.531Z,3.38
2023-05-05T11:28:09.688Z,3.10
2023-05-05T11:29:11.387Z,3.42
2023-05-05T11:30:13.576Z,3.60
2023-05-05T11:31:15.709Z,3.53
2023-05-05T11:32:17.350Z,3.70
2023-05-05T11:33:38.587Z,3.65
2023-05-05T11:34:49.905Z,3.75
2023-05-05T11:36:06.515Z,2.85
2023-05-05T11:37:08.760Z,3.10
2023-05-05T11:38:10.355Z,2.28
2023-05-05T11:39:17.720Z,3.28
2023-05-05T11:40:24.361Z,3.00
2023-05-05T11:41:34.502Z,2.97
2023-05-05T11:42:36.220Z,2.70
2023-05-05T11:43:37.978Z,3.20
2023-05-05T11:44:39.632Z,3.00
2023-05-05T11:45:41.676Z,3.25
2023-05-05T11:46:52.200Z,2.75
2023-05-05T11:48:16.283Z,2.60
2023-05-05T11:49:29.986Z,2.40
2023-05-05T11:50:32.291Z,2.50
2023-05-05T11:51:33.976Z,2.78
2023-05-05T11:52:35.582Z,2.75
2023-05-05T11:53:37.181Z,2.33
2023-05-05T11:54:50.223Z,2.80
2023-05-05T11:56:06.488Z,3.10
2023-05-05T11:57:09.076Z,3.20
2023-05-05T11:58:20.578Z,3.05
2023-05-05T11:59:22.265Z,2.90
2023-05-05T12:00:33.930Z,2.90
2023-05-05T12:01:40.721Z,2.63
2023-05-05T12:02:42.437Z,2.70
2023-05-05T12:03:45.885Z,2.70
2023-05-05T12:04:48.120Z,3.10
2023-05-05T12:05:49.725Z,2.97
2023-05-05T12:06:51.561Z,2.83
2023-05-05T12:07:57.096Z,3.20
2023-05-05T12:08:58.707Z,3.15
2023-05-05T12:10:00.425Z,2.97
2023-05-05T12:11:08.452Z,3.15
2023-05-05T12:12:10.096Z,2.83
2023-05-05T12:13:21.176Z,2.97
2023-05-05T12:14:23.575Z,2.53
2023-05-05T12:15:29.806Z,2.47
2023-05-05T12:16:31.439Z,2.80
2023-05-05T12:17:40.489Z,3.00
2023-05-05T12:18:42.294Z,2.65
2023-05-05T12:19:48.096Z,3.05
2023-05-05T12:20:49.736Z,2.40
2023-05-05T12:21:54.193Z,3.38
2023-05-05T12:23:05.232Z,3.20
2023-05-05T12:24:07.393Z,3.65
2023-05-05T12:25:09.575Z,3.60
2023-05-05T12:26:27.650Z,3.37
2023-05-05T12:27:29.356Z,2.85
2023-05-05T12:28:44.248Z,3.20
2023-05-05T12:29:45.918Z,3.40
2023-05-05T12:30:57.811Z,3.33
2023-05-05T12:32:00.372Z,3.22
2023-05-05T12:33:03.481Z,3.15
2023-05-05T12:34:06.295Z,3.10
2023-05-05T12:35:08.676Z,3.15
2023-05-05T12:36:10.298Z,2.70
2023-05-05T12:37:12.275Z,2.93
2023-05-05T12:38:16.081Z,3.00
2023-05-05T12:39:17.708Z,3.00
2023-05-05T12:40:45.130Z,3.00
2023-05-05T12:41:46.913Z,2.58
2023-05-05T12:42:48.497Z,2.63
2023-05-05T12:43:57.889Z,3.00
2023-05-05T12:44:59.598Z,2.83
2023-05-05T12:46:08.463Z,2.80
2023-05-05T12:47:11.478Z,3.85
2023-05-05T12:48:22.593Z,3.37
2023-05-05T12:49:24.203Z,3.35
2023-05-05T12:50:32.267Z,3.67
2023-05-05T12:51:34.668Z,3.85
2023-05-05T12:52:43.678Z,2.90
2023-05-05T12:53:48.749Z,3.70
2023-05-05T12:55:06.014Z,3.25
2023-05-05T12:56:31.150Z,2.90
2023-05-05T12:57:32.775Z,3.20
2023-05-05T12:58:48.653Z,3.35
2023-05-05T12:59:51.110Z,3.10
2023-05-05T13:01:08.446Z,3.20
2023-05-05T13:02:10.138Z,3.03
2023-05-05T13:03:21.225Z,3.42
2023-05-05T13:04:24.176Z,3.17
2023-05-05T13:05:32.751Z,2.67
2023-05-05T13:06:34.603Z,2.95
2023-05-05T13:07:36.610Z,3.03
2023-05-05T13:08:44.211Z,3.00
2023-05-05T13:09:47.230Z,3.40
2023-05-05T13:10:58.745Z,2.90
2023-05-05T13:12:02.936Z,2.60
2023-05-05T13:13:05.077Z,3.15
2023-05-05T13:14:07.010Z,2.63
2023-05-05T13:15:09.666Z,3.00
2023-05-05T13:16:11.530Z,2.60
2023-05-05T13:17:14.023Z,2.35
2023-05-05T13:18:15.628Z,3.00
2023-05-05T13:19:17.275Z,2.47
2023-05-05T13:20:18.940Z,2.42
2023-05-05T13:21:20.549Z,2.57
2023-05-05T13:22:22.303Z,2.45
2023-05-05T13:23:25.709Z,2.15
2023-05-05T13:24:38.582Z,2.35
2023-05-05T13:25:48.628Z,2.33
2023-05-05T13:26:50.937Z,1.85
2023-05-05T13:27:52.562Z,1.83
2023-05-05T13:28:54.582Z,2.22
2023-05-05T13:29:56.241Z,2.38
2023-05-05T13:30:58.849Z,2.30
2023-05-05T13:32:00.543Z,2.70
2023-05-05T13:33:03.396Z,1.70
2023-05-05T13:34:05.149Z,2.08
2023-05-05T13:35:07.601Z,2.35
2023-05-05T13:36:09.469Z,1.83
2023-05-05T13:37:11.138Z,1.80
2023-05-05T13:38:12.839Z,2.30
2023-05-05T13:39:14.467Z,2.25
2023-05-05T13:40:16.112Z,2.10
2023-05-05T13:41:17.700Z,1.77
2023-05-05T13:42:19.404Z,2.43
2023-05-05T13:43:21.129Z,1.83
2023-05-05T13:44:22.724Z,1.63
2023-05-05T13:45:24.373Z,1.80
2023-05-05T13:46:26.059Z,1.75
2023-05-05T13:47:27.738Z,1.85
2023-05-05T13:48:29.339Z,1.67
2023-05-05T13:49:31.001Z,1.80
2023-05-05T13:50:32.749Z,1.80
2023-05-05T13:51:34.906Z,1.98
2023-05-05T13:52:37.563Z,1.87
2023-05-05T13:53:43.791Z,1.50
2023-05-05T13:54:45.394Z,1.60
2023-05-05T13:55:47.029Z,2.03
2023-05-05T13:56:48.662Z,2.00
2023-05-05T13:57:50.282Z,2.20
2023-05-05T13:58:52.453Z,1.45
2023-05-05T13:59:54.082Z,2.10
2023-05-05T14:00:56.276Z,2.38
2023-05-05T14:01:57.933Z,1.98
2023-05-05T14:03:00.281Z,3.80
2023-05-05T14:04:04.420Z,1.98
2023-05-05T14:05:08.029Z,1.90
2023-05-05T14:06:09.901Z,2.00
2023-05-05T14:07:12.009Z,1.73
2023-05-05T14:08:13.706Z,1.90
2023-05-05T14:09:15.369Z,2.00
2023-05-05T14:10:16.932Z,2.15
2023-05-05T14:11:20.694Z,2.33
2023-05-05T14:12:23.737Z,2.20
2023-05-05T14:13:25.384Z,2.00
2023-05-05T14:14:26.978Z,2.13